Time;durP1;ratioP1;P1;durP2;ratioP2;P2;SDS_P1;SDS_P2;PMS_P1;PMS_P2;Temp;Humidity;BMP_temperature;BMP_pressure;BME280_temperature;BME280_humidity;BME280_pressure;Samples;Min_cycle;Max_cycle;Signal;HPM_P1;HPM_P2
2021/03/25 00:01:15;;;;;;;84.65;45.12;;;;;;;7.58;72.68;100735.62;1777481;79;21159;-77
2021/03/25 00:03:42;;;;;;;84.00;43.87;;;;;;;7.50;72.97;100732.31;1776997;79;21189;-77
2021/03/25 00:06:07;;;;;;;88.55;45.40;;;;;;;7.67;72.64;100727.00;1783611;79;21174;-77
2021/03/25 00:08:33;;;;;;;82.37;43.63;;;;;;;7.59;73.00;100731.22;1783751;79;28374;-77
2021/03/25 00:10:59;;;;;;;79.27;43.85;;;;;;;7.61;73.04;100734.55;1781435;79;26751;-78
2021/03/25 00:13:25;;;;;;;79.22;44.00;;;;;;;7.63;73.15;100731.31;1780295;79;21244;-77
2021/03/25 00:15:51;;;;;;;83.20;45.23;;;;;;;7.61;73.18;100726.66;1777557;79;27029;-78
2021/03/25 00:18:17;;;;;;;84.15;45.30;;;;;;;7.64;73.08;100729.05;1774333;79;26135;-77
2021/03/25 00:20:43;;;;;;;85.17;46.05;;;;;;;7.66;73.03;100728.44;1782817;79;21607;-77
2021/03/25 00:23:09;;;;;;;90.10;48.02;;;;;;;7.45;73.88;100727.06;1781999;79;21193;-77
2021/03/25 00:25:37;;;;;;;88.25;48.87;;;;;;;7.20;74.85;100731.61;1761863;79;21214;-77
2021/03/25 00:28:03;;;;;;;89.25;47.70;;;;;;;7.32;74.41;100716.20;1758701;79;21210;-77
2021/03/25 00:30:30;;;;;;;88.22;46.70;;;;;;;7.39;74.36;100717.86;1779744;79;21628;-77
2021/03/25 00:32:57;;;;;;;82.72;46.13;;;;;;;7.41;74.42;100721.22;1781316;78;21432;-77
2021/03/25 00:35:24;;;;;;;83.85;46.42;;;;;;;7.40;74.35;100716.91;1780848;79;21182;-77
2021/03/25 00:37:50;;;;;;;89.17;48.20;;;;;;;7.63;73.75;100715.54;1783987;78;21160;-77
2021/03/25 00:40:16;;;;;;;81.70;46.75;;;;;;;7.49;73.91;100712.23;1773281;78;27055;-78
2021/03/25 00:42:42;;;;;;;85.57;47.55;;;;;;;7.54;73.96;100715.81;1779647;78;25302;-77
2021/03/25 00:45:13;;;;;;;85.15;47.05;;;;;;;7.54;73.84;100714.02;1773483;78;28815;-78
2021/03/25 00:47:39;;;;;;;97.30;50.90;;;;;;;7.55;73.87;100710.44;1791379;78;21223;-77
2021/03/25 00:50:09;;;;;;;86.75;46.02;;;;;;;7.41;74.31;100709.40;1773875;78;22010;-78
2021/03/25 00:52:35;;;;;;;90.15;48.55;;;;;;;7.54;74.06;100705.30;1736511;78;21205;-81
2021/03/25 00:55:01;;;;;;;83.72;47.30;;;;;;;7.50;74.09;100706.04;1765061;78;25317;-79
2021/03/25 00:57:27;;;;;;;87.95;47.33;;;;;;;7.43;74.30;100708.78;1777695;78;21201;-80
2021/03/25 00:59:53;;;;;;;86.15;47.90;;;;;;;7.46;74.39;100709.03;1773047;78;26992;-80
2021/03/25 01:02:19;;;;;;;88.87;50.00;;;;;;;7.50;74.26;100711.30;1779244;78;21622;-80
2021/03/25 01:04:45;;;;;;;86.72;48.70;;;;;;;7.42;74.55;100701.02;1787176;78;28042;-77
2021/03/25 01:07:11;;;;;;;84.25;46.65;;;;;;;7.51;74.09;100698.48;1773349;78;25370;-76
2021/03/25 01:09:36;;;;;;;92.30;50.55;;;;;;;7.55;74.08;100699.92;1780519;77;28267;-77
2021/03/25 01:12:03;;;;;;;88.33;47.98;;;;;;;7.53;74.13;100699.68;1774032;78;26795;-77
2021/03/25 01:14:29;;;;;;;92.27;49.00;;;;;;;7.45;74.32;100697.66;1743232;78;21569;-76
2021/03/25 01:17:01;;;;;;;86.57;46.35;;;;;;;7.59;73.91;100691.30;1779969;78;21538;-76
2021/03/25 01:19:27;;;;;;;90.05;48.52;;;;;;;7.59;73.79;100694.42;1782495;78;21049;-77
2021/03/25 01:21:53;;;;;;;88.10;47.30;;;;;;;7.52;73.80;100694.91;1781377;78;21217;-77
2021/03/25 01:24:19;;;;;;;86.20;46.87;;;;;;;7.61;73.41;100696.44;1775373;78;21239;-78
2021/03/25 01:26:45;;;;;;;84.67;46.98;;;;;;;7.63;73.32;100691.88;1779820;78;21839;-77
2021/03/25 01:29:11;;;;;;;82.65;46.75;;;;;;;7.58;73.34;100688.31;1796078;77;27516;-77
2021/03/25 01:31:36;;;;;;;83.27;44.65;;;;;;;7.66;72.97;100687.69;1787187;78;25377;-77
2021/03/25 01:34:03;;;;;;;85.85;46.40;;;;;;;7.47;73.49;100683.95;1777306;77;28304;-77
2021/03/25 01:36:29;;;;;;;90.87;47.10;;;;;;;7.47;73.62;100680.47;1788931;78;21209;-77
2021/03/25 01:38:54;;;;;;;77.72;43.90;;;;;;;7.58;73.23;100688.80;1785568;78;22389;-77
2021/03/25 01:41:20;;;;;;;85.38;45.25;;;;;;;7.60;73.14;100682.93;1785447;78;27516;-77
2021/03/25 01:43:46;;;;;;;83.80;44.48;;;;;;;7.60;73.10;100677.67;1787339;78;25301;-77
2021/03/25 01:46:36;;;;;;;81.87;44.95;;;;;;;7.70;72.80;100675.98;1799549;78;28815;-77
2021/03/25 01:49:11;;;;;;;74.50;42.17;;;;;;;7.70;72.73;100682.55;1790336;78;21206;-77
2021/03/25 01:52:01;;;;;;;75.32;42.65;;;;;;;7.78;72.54;100674.87;1789157;77;21273;-77
2021/03/25 01:54:47;;;;;;;83.90;46.15;;;;;;;7.81;71.55;100673.30;1783675;78;21233;-77
2021/03/25 01:57:41;;;;;;;80.85;44.20;;;;;;;7.96;71.69;100679.61;1793941;78;21660;-76
2021/03/25 02:00:18;;;;;;;79.90;46.05;;;;;;;8.00;70.85;100681.00;1781667;78;21150;-77
2021/03/25 02:03:18;;;;;;;75.78;43.00;;;;;;;7.92;70.72;100677.69;1787131;78;21245;-77
2021/03/25 02:06:15;;;;;;;77.32;43.20;;;;;;;7.86;70.85;100678.19;1793822;78;21345;-75
2021/03/25 02:09:08;;;;;;;72.10;42.78;;;;;;;7.84;70.76;100672.23;1782213;78;22463;-76
2021/03/25 02:12:15;;;;;;;77.08;43.08;;;;;;;7.86;70.53;100676.41;1784764;78;21612;-74
2021/03/25 02:14:58;;;;;;;78.42;42.70;;;;;;;7.81;70.63;100669.85;1787029;78;21174;-76
2021/03/25 02:17:36;;;;;;;79.25;44.05;;;;;;;7.75;71.08;100676.44;1780438;78;21229;-76
2021/03/25 02:20:23;;;;;;;85.40;46.15;;;;;;;7.80;71.44;100673.43;1781933;78;21715;-76
2021/03/25 02:23:45;;;;;;;75.90;43.83;;;;;;;7.72;71.56;100671.42;1786805;78;21229;-77
2021/03/25 02:26:18;;;;;;;74.20;42.43;;;;;;;7.62;71.98;100677.09;1792492;78;21205;-76
2021/03/25 02:28:55;;;;;;;79.82;43.13;;;;;;;7.57;72.13;100672.66;1784996;78;22377;-77
2021/03/25 02:31:25;;;;;;;81.67;44.48;;;;;;;7.50;72.40;100673.19;1788347;78;21242;-76
2021/03/25 02:33:53;;;;;;;81.42;46.18;;;;;;;7.59;72.30;100671.59;1784002;78;21185;-74
2021/03/25 02:36:26;;;;;;;81.50;45.43;;;;;;;7.65;72.20;100670.27;1782304;78;21176;-76
2021/03/25 02:38:56;;;;;;;80.30;45.38;;;;;;;7.66;72.29;100679.80;1786755;78;21509;-76
2021/03/25 02:41:26;;;;;;;85.67;46.42;;;;;;;7.31;73.26;100678.23;1790268;78;21229;-75
2021/03/25 02:44:06;;;;;;;88.17;46.40;;;;;;;7.34;73.28;100672.73;1782714;78;21196;-76
2021/03/25 02:46:39;;;;;;;84.15;46.05;;;;;;;7.44;72.83;100673.68;1786764;78;21253;-76
2021/03/25 02:49:08;;;;;;;80.47;44.98;;;;;;;7.51;72.58;100669.58;1788141;78;21240;-76
2021/03/25 02:51:42;;;;;;;81.40;46.55;;;;;;;7.55;72.32;100671.47;1790533;77;21210;-76
2021/03/25 02:54:08;;;;;;;81.17;45.05;;;;;;;7.41;72.63;100666.05;1777682;78;21300;-77
2021/03/25 02:56:51;;;;;;;79.85;44.18;;;;;;;7.47;72.51;100668.18;1760734;78;21180;-77
2021/03/25 02:59:32;;;;;;;74.50;42.98;;;;;;;7.47;72.20;100666.86;1790296;78;21321;-76
2021/03/25 03:02:03;;;;;;;75.52;43.90;;;;;;;7.57;71.89;100666.09;1783738;77;21237;-77
2021/03/25 03:04:33;;;;;;;77.92;44.63;;;;;;;7.58;71.73;100655.45;1787310;77;21241;-76
2021/03/25 03:07:12;;;;;;;76.20;43.83;;;;;;;7.58;71.86;100665.15;1758268;78;21249;-77
2021/03/25 03:09:42;;;;;;;76.53;43.65;;;;;;;7.58;71.85;100661.20;1796502;78;21150;-76
2021/03/25 03:12:22;;;;;;;77.12;44.65;;;;;;;7.62;71.75;100656.06;1762968;78;21341;-77
2021/03/25 03:14:52;;;;;;;86.50;45.48;;;;;;;7.59;71.88;100658.94;1792229;78;21689;-76
2021/03/25 03:17:41;;;;;;;77.45;44.00;;;;;;;7.42;72.26;100666.87;1787048;78;21189;-77
2021/03/25 03:20:18;;;;;;;78.72;44.42;;;;;;;7.51;72.17;100658.25;1787222;78;21205;-75
2021/03/25 03:22:43;;;;;;;74.27;43.92;;;;;;;7.64;71.83;100659.39;1789889;78;21209;-76
2021/03/25 03:25:14;;;;;;;78.12;44.10;;;;;;;7.71;71.60;100661.89;1789595;78;21840;-76
2021/03/25 03:27:55;;;;;;;78.87;44.35;;;;;;;7.75;71.41;100665.92;1779798;78;21206;-76
2021/03/25 03:30:34;;;;;;;75.75;43.65;;;;;;;7.74;71.22;100665.58;1797682;78;21549;-75
2021/03/25 03:33:11;;;;;;;79.07;43.78;;;;;;;7.79;71.26;100655.52;1785692;78;21162;-76
2021/03/25 03:35:42;;;;;;;81.67;43.75;;;;;;;7.80;71.11;100657.66;1793629;78;21190;-75
2021/03/25 03:38:12;;;;;;;77.32;45.20;;;;;;;7.87;70.58;100659.66;1784948;78;21174;-75
2021/03/25 03:40:41;;;;;;;76.60;43.15;;;;;;;7.85;70.81;100658.95;1781805;78;21181;-75
2021/03/25 03:43:13;;;;;;;78.72;43.90;;;;;;;7.80;70.75;100653.71;1797402;78;21553;-75
2021/03/25 03:45:50;;;;;;;76.72;43.80;;;;;;;7.65;71.23;100651.88;1786955;78;21697;-75
2021/03/25 03:48:33;;;;;;;73.67;42.80;;;;;;;7.79;71.09;100656.83;1782599;78;21151;-75
2021/03/25 03:51:01;;;;;;;81.17;44.50;;;;;;;7.85;70.98;100656.33;1744012;78;22099;-76
2021/03/25 03:53:27;;;;;;;77.32;44.60;;;;;;;7.89;70.71;100657.76;1785287;78;21213;-76
2021/03/25 03:56:15;;;;;;;80.22;44.83;;;;;;;7.95;70.65;100655.58;1779144;78;25755;-76
2021/03/25 03:58:47;;;;;;;71.50;43.02;;;;;;;7.81;70.90;100664.10;1788398;78;21226;-76
2021/03/25 04:01:21;;;;;;;78.45;45.23;;;;;;;7.75;71.10;100661.97;1782168;78;21790;-75
2021/03/25 04:03:47;;;;;;;80.42;45.20;;;;;;;7.79;71.21;100666.52;1789702;78;21658;-75
2021/03/25 04:06:21;;;;;;;77.10;43.85;;;;;;;7.72;71.33;100670.11;1785502;78;21218;-75
2021/03/25 04:09:14;;;;;;;77.32;43.75;;;;;;;7.74;71.34;100660.33;1788261;78;21656;-75
2021/03/25 04:11:52;;;;;;;77.00;44.15;;;;;;;7.81;71.10;100663.28;1779352;78;21199;-76
2021/03/25 04:14:37;;;;;;;75.15;43.55;;;;;;;7.63;71.67;100660.34;1767231;78;21184;-75
2021/03/25 04:17:06;;;;;;;80.03;43.55;;;;;;;7.72;71.64;100658.28;1772926;78;21213;-75
2021/03/25 04:19:41;;;;;;;77.12;43.58;;;;;;;7.75;71.41;100658.52;1781804;78;21237;-75
2021/03/25 04:22:12;;;;;;;75.50;43.25;;;;;;;7.72;71.41;100662.22;1781353;78;21666;-75
2021/03/25 04:24:46;;;;;;;82.10;45.52;;;;;;;7.65;71.65;100659.27;1779216;78;21226;-75
2021/03/25 04:27:22;;;;;;;80.45;43.98;;;;;;;7.58;71.72;100655.95;1788072;78;21199;-75
2021/03/25 04:30:05;;;;;;;79.15;45.48;;;;;;;7.51;72.31;100668.27;1788800;78;21158;-76
2021/03/25 04:32:31;;;;;;;78.52;44.38;;;;;;;7.62;72.21;100670.52;1792670;78;22304;-75
2021/03/25 04:34:59;;;;;;;75.25;44.15;;;;;;;7.57;71.75;100670.03;1785722;78;23728;-76
2021/03/25 04:37:24;;;;;;;;;;;;;;;7.62;71.70;100663.95;1798660;78;21486;-75
2021/03/25 04:39:50;;;;;;;74.75;42.65;;;;;;;7.73;71.52;100666.05;1793916;78;26932;-75
2021/03/25 04:42:16;;;;;;;73.12;43.02;;;;;;;7.76;71.36;100664.97;1786039;78;21369;-77
2021/03/25 04:44:48;;;;;;;77.50;45.00;;;;;;;7.82;71.10;100653.95;1794417;78;27140;-77
2021/03/25 04:47:22;;;;;;;75.37;43.60;;;;;;;7.83;70.96;100656.95;1778110;78;21675;-77
2021/03/25 04:50:09;;;;;;;81.17;44.27;;;;;;;7.89;70.90;100662.16;1798129;78;21160;-75
2021/03/25 04:52:34;;;;;;;76.28;42.48;;;;;;;7.96;70.63;100657.25;1787986;78;21185;-77
2021/03/25 04:55:22;;;;;;;74.60;42.90;;;;;;;7.95;70.19;100660.83;1783804;78;22370;-76
2021/03/25 04:57:56;;;;;;;;;;;;;;;7.98;70.30;100660.58;1786126;78;21211;-76
2021/03/25 05:00:27;;;;;;;72.42;40.63;;;;;;;7.98;70.33;100657.95;1803946;76;20328;-74
2021/03/25 05:02:54;;;;;;;72.27;41.70;;;;;;;7.96;70.24;100660.70;1791186;78;21157;-76
2021/03/25 05:05:25;;;;;;;76.97;44.05;;;;;;;7.94;70.36;100661.78;1785269;78;21179;-76
2021/03/25 05:07:59;;;;;;;78.20;44.88;;;;;;;7.84;70.57;100655.97;1762779;78;21965;-75
2021/03/25 05:10:40;;;;;;;84.22;45.00;;;;;;;7.61;71.35;100672.78;1783001;78;21542;-74
2021/03/25 05:13:09;;;;;;;77.22;45.80;;;;;;;7.48;71.94;100675.09;1789568;78;21600;-73
2021/03/25 05:15:34;;;;;;;80.40;44.18;;;;;;;7.36;72.46;100676.92;1777417;77;21542;-74
2021/03/25 05:18:23;;;;;;;76.53;44.60;;;;;;;7.31;72.52;100680.38;1783166;78;26741;-74
2021/03/25 05:20:57;;;;;;;74.50;41.88;;;;;;;7.34;72.38;100683.24;1788354;78;21224;-74
2021/03/25 05:23:33;;;;;;;77.03;43.90;;;;;;;7.44;71.97;100680.25;1782130;78;21475;-74
2021/03/25 05:26:08;;;;;;;79.10;44.85;;;;;;;7.38;72.06;100675.48;1780972;78;21218;-74
2021/03/25 05:28:44;;;;;;;80.67;43.87;;;;;;;7.46;71.86;100670.44;1784282;78;21142;-74
2021/03/25 05:31:12;;;;;;;78.67;44.58;;;;;;;7.64;71.54;100668.10;1787728;78;21888;-75
2021/03/25 05:33:38;;;;;;;81.22;44.95;;;;;;;7.62;71.15;100673.15;1791508;78;21215;-75
2021/03/25 05:36:10;;;;;;;75.85;43.28;;;;;;;7.54;71.21;100674.59;1790978;78;21224;-74
2021/03/25 05:38:37;;;;;;;75.05;43.80;;;;;;;7.59;71.28;100674.71;1797495;77;21211;-74
2021/03/25 05:41:28;;;;;;;77.95;43.20;;;;;;;7.59;70.98;100676.02;1788818;78;21683;-74
2021/03/25 05:44:15;;;;;;;76.00;42.98;;;;;;;7.58;70.95;100675.66;1779169;78;22248;-75
2021/03/25 05:47:03;;;;;;;77.10;45.17;;;;;;;7.58;71.16;100684.86;1781259;78;21734;-75
2021/03/25 05:49:49;;;;;;;77.70;44.60;;;;;;;7.58;71.34;100684.86;1785785;78;21224;-75
2021/03/25 05:52:42;;;;;;;74.67;44.13;;;;;;;7.66;71.01;100678.49;1786527;78;21232;-75
2021/03/25 05:55:32;;;;;;;75.75;43.52;;;;;;;7.61;71.13;100678.04;1792309;78;21662;-75
2021/03/25 05:58:18;;;;;;;75.83;43.78;;;;;;;7.45;71.71;100685.84;1791804;78;21268;-75
2021/03/25 06:01:17;;;;;;;80.50;45.80;;;;;;;7.42;72.08;100683.45;1783520;78;22647;-75
2021/03/25 06:04:00;;;;;;;84.55;46.95;;;;;;;7.58;71.58;100679.60;1793069;78;21445;-76
2021/03/25 06:06:50;;;;;;;80.50;44.75;;;;;;;7.43;71.96;100687.77;1768459;78;21244;-76
2021/03/25 06:09:33;;;;;;;76.65;44.40;;;;;;;7.49;71.70;100682.52;1760009;78;21225;-74
2021/03/25 06:12:41;;;;;;;77.97;44.33;;;;;;;7.43;72.11;100693.02;1775961;77;21227;-75
2021/03/25 06:15:44;;;;;;;82.45;45.67;;;;;;;7.52;71.81;100694.91;1776676;77;21465;-76
2021/03/25 06:19:06;;;;;;;79.85;43.83;;;;;;;7.38;72.23;100700.44;1772931;77;21481;-76
2021/03/25 06:21:58;;;;;;;77.50;44.67;;;;;;;7.37;72.24;100701.39;1781010;78;21726;-75
2021/03/25 06:24:53;;;;;;;82.42;45.67;;;;;;;7.15;73.31;100713.59;1703435;81;21269;-76
2021/03/25 06:28:08;;;;;;;80.95;45.50;;;;;;;7.30;73.09;100708.08;1772768;78;21178;-77
2021/03/25 06:30:41;;;;;;;75.32;43.23;;;;;;;7.37;72.97;100704.02;1771009;78;21637;-77
2021/03/25 06:33:15;;;;;;;75.45;41.60;;;;;;;7.34;73.17;100709.52;1788655;78;21222;-77
2021/03/25 06:35:47;;;;;;;80.10;46.63;;;;;;;7.19;73.46;100714.17;1795287;78;21197;-75
2021/03/25 06:38:22;;;;;;;84.65;49.00;;;;;;;7.15;73.79;100716.22;1779594;78;21604;-75
2021/03/25 06:40:58;;;;;;;90.65;49.23;;;;;;;7.24;73.70;100705.93;1766903;79;21204;-75
2021/03/25 06:43:37;;;;;;;81.00;46.33;;;;;;;7.19;73.83;100712.41;1776779;79;21519;-75
2021/03/25 06:46:08;;;;;;;82.55;46.37;;;;;;;7.21;73.80;100721.93;1771700;79;21221;-76
2021/03/25 06:48:47;;;;;;;87.00;48.45;;;;;;;7.05;74.39;100723.12;1772389;78;21189;-76
2021/03/25 06:51:26;;;;;;;89.10;49.42;;;;;;;7.22;74.03;100718.36;1769859;79;21253;-77
2021/03/25 06:54:06;;;;;;;90.07;51.15;;;;;;;7.19;74.02;100719.42;1768720;79;21806;-76
2021/03/25 06:56:35;;;;;;;91.25;49.75;;;;;;;7.26;73.88;100714.55;1775435;79;21912;-77
2021/03/25 06:59:02;;;;;;;89.62;49.35;;;;;;;7.22;73.99;100721.81;1765465;79;21246;-76
2021/03/25 07:01:46;;;;;;;91.45;48.13;;;;;;;7.26;73.93;100725.05;1765869;79;21600;-76
2021/03/25 07:04:26;;;;;;;84.10;47.25;;;;;;;7.36;73.84;100714.16;1765347;79;21567;-76
2021/03/25 07:06:54;;;;;;;87.60;50.12;;;;;;;7.49;73.48;100717.98;1761663;79;21234;-74
2021/03/25 07:09:25;;;;;;;94.55;51.30;;;;;;;7.53;73.01;100714.96;1765524;79;21209;-77
2021/03/25 07:11:51;;;;;;;90.62;50.60;;;;;;;7.59;73.02;100718.08;1766195;79;21223;-76
2021/03/25 07:14:21;;;;;;;84.55;47.70;;;;;;;7.65;72.50;100714.95;1764431;79;25351;-78
2021/03/25 07:16:48;;;;;;;86.20;48.80;;;;;;;7.60;72.24;100710.07;1762183;79;21237;-76
2021/03/25 07:19:17;;;;;;;92.42;48.92;;;;;;;7.72;72.10;100718.74;1770088;79;21181;-78
2021/03/25 07:21:51;;;;;;;83.20;47.90;;;;;;;7.60;72.65;100722.36;1746301;79;22305;-76
2021/03/25 07:24:34;;;;;;;86.67;47.62;;;;;;;7.67;72.20;100720.92;1771156;79;21205;-74
2021/03/25 07:27:39;;;;;;;81.35;47.10;;;;;;;7.70;72.51;100719.36;1765534;79;21524;-75
2021/03/25 07:30:12;;;;;;;85.95;48.85;;;;;;;7.86;72.32;100721.12;1729904;79;21243;-74
2021/03/25 07:32:57;;;;;;;84.15;49.08;;;;;;;7.96;71.54;100712.48;1762979;79;21219;-73
2021/03/25 07:35:37;;;;;;;84.25;46.95;;;;;;;8.02;70.96;100717.23;1768686;79;21185;-75
2021/03/25 07:38:28;;;;;;;85.30;47.48;;;;;;;8.07;70.68;100724.27;1763334;79;21202;-75
2021/03/25 07:41:24;;;;;;;85.35;48.70;;;;;;;8.09;70.64;100721.87;1795292;77;21608;-75
2021/03/25 07:44:03;;;;;;;79.60;46.75;;;;;;;8.09;70.51;100718.39;1793955;77;21689;-74
2021/03/25 07:46:43;;;;;;;81.85;47.40;;;;;;;8.22;70.28;100717.74;1779424;77;21194;-76
2021/03/25 07:49:16;;;;;;;84.55;47.67;;;;;;;8.23;70.12;100723.38;1795167;77;21199;-76
2021/03/25 07:51:50;;;;;;;84.10;47.43;;;;;;;8.27;69.83;100719.50;1798411;77;21213;-74
2021/03/25 07:54:30;;;;;;;85.97;47.70;;;;;;;8.40;69.37;100715.36;1799235;77;21633;-75
2021/03/25 07:57:02;;;;;;;88.95;46.05;;;;;;;8.52;69.19;100720.61;1788477;77;21181;-75
2021/03/25 07:59:42;;;;;;;85.05;47.43;;;;;;;8.61;68.95;100719.35;1800828;77;21199;-74
2021/03/25 08:02:39;;;;;;;85.60;46.45;;;;;;;8.67;68.63;100721.11;1787902;77;21233;-77
2021/03/25 08:05:30;;;;;;;79.75;44.95;;;;;;;8.59;68.33;100723.92;1797827;77;21208;-76
2021/03/25 08:08:03;;;;;;;77.95;44.63;;;;;;;8.57;67.33;100721.05;1797622;77;21769;-74
2021/03/25 08:10:35;;;;;;;75.30;43.63;;;;;;;8.62;67.51;100724.13;1780900;77;21221;-76
2021/03/25 08:13:23;;;;;;;77.82;43.30;;;;;;;8.71;66.88;100718.08;1783705;77;21201;-76
2021/03/25 08:15:54;;;;;;;77.62;42.85;;;;;;;8.80;66.29;100721.75;1788699;77;21865;-76
2021/03/25 08:18:41;;;;;;;76.05;45.12;;;;;;;8.85;66.11;100718.23;1765503;78;21738;-77
2021/03/25 08:21:39;;;;;;;77.65;43.73;;;;;;;9.00;65.95;100721.86;1781807;77;21626;-78
2021/03/25 08:24:22;;;;;;;80.70;44.63;;;;;;;9.09;64.81;100720.57;1801124;77;21222;-76
2021/03/25 08:27:06;;;;;;;74.70;43.05;;;;;;;9.20;64.02;100724.05;1766597;77;21233;-78
2021/03/25 08:29:54;;;;;;;76.07;45.03;;;;;;;9.33;62.69;100726.81;1790227;77;21211;-79
2021/03/25 08:32:25;;;;;;;76.15;43.42;;;;;;;9.28;62.67;100732.98;1792378;77;21230;-79
2021/03/25 08:35:02;;;;;;;79.12;44.18;;;;;;;9.23;62.78;100725.96;1777257;77;21247;-78
2021/03/25 08:37:54;;;;;;;80.40;45.12;;;;;;;9.34;63.24;100720.58;1786010;77;21185;-75
2021/03/25 08:41:04;;;;;;;75.57;43.85;;;;;;;9.46;62.96;100720.47;1789973;76;21221;-77
2021/03/25 08:43:38;;;;;;;82.72;42.10;;;;;;;9.56;62.99;100722.66;1696408;82;21326;-78
2021/03/25 08:46:29;;;;;;;77.32;44.42;;;;;;;9.54;62.28;100727.24;1766803;78;21217;-75
2021/03/25 08:49:04;;;;;;;74.27;43.48;;;;;;;9.54;62.28;100725.92;1788080;78;21200;-77
2021/03/25 08:51:39;;;;;;;74.70;43.00;;;;;;;9.53;61.47;100727.70;1788823;78;21681;-77
2021/03/25 08:54:22;;;;;;;73.62;41.18;;;;;;;9.57;61.20;100733.56;1783797;78;21665;-75
2021/03/25 08:56:52;;;;;;;72.97;42.25;;;;;;;9.57;60.84;100729.61;1798891;78;21208;-73
2021/03/25 08:59:26;;;;;;;72.10;41.42;;;;;;;9.56;60.71;100730.56;1792084;78;21560;-78
2021/03/25 09:02:25;;;;;;;62.65;38.02;;;;;;;9.57;60.37;100729.61;1784585;78;21196;-78
2021/03/25 09:05:01;;;;;;;63.65;38.33;;;;;;;9.78;59.13;100729.98;1794241;78;21629;-78
2021/03/25 09:07:27;;;;;;;69.35;38.75;;;;;;;9.80;59.10;100728.03;1785743;78;21252;-80
2021/03/25 09:09:55;;;;;;;69.22;39.58;;;;;;;9.86;58.64;100727.48;1788998;78;21394;-78
2021/03/25 09:12:24;;;;;;;69.30;39.30;;;;;;;9.82;58.86;100727.41;1777276;78;21205;-81
2021/03/25 09:14:50;;;;;;;66.55;39.08;;;;;;;9.83;58.42;100726.44;1792049;78;21233;-80
2021/03/25 09:17:20;;;;;;;65.67;38.60;;;;;;;9.91;58.44;100723.94;1784758;78;21410;-78
2021/03/25 09:19:49;;;;;;;67.22;39.92;;;;;;;10.02;58.07;100729.11;1785374;78;21636;-78
2021/03/25 09:22:42;;;;;;;67.60;39.78;;;;;;;9.99;58.22;100725.42;1790562;78;21212;-76
2021/03/25 09:25:29;;;;;;;66.37;39.08;;;;;;;10.12;58.06;100723.83;1796504;78;21642;-77
2021/03/25 09:28:04;;;;;;;;;;;;;;;10.10;57.98;100716.55;1774351;78;21209;-75
2021/03/25 09:30:41;;;;;;;65.62;37.75;;;;;;;10.01;57.26;100718.20;1797909;78;20331;-77
2021/03/25 09:33:55;;;;;;;62.25;38.08;;;;;;;10.04;57.09;100717.09;1787161;78;21198;-77
2021/03/25 09:36:35;;;;;;;63.28;37.55;;;;;;;10.02;56.61;100721.20;1785256;78;21273;-77
2021/03/25 09:39:19;;;;;;;64.45;39.05;;;;;;;10.05;55.81;100720.91;1795210;78;21201;-76
2021/03/25 09:41:44;;;;;;;64.58;39.98;;;;;;;9.89;56.08;100724.08;1790900;78;21621;-75
2021/03/25 09:44:19;;;;;;;63.23;38.45;;;;;;;10.16;55.47;100721.27;1797352;77;20999;-76
2021/03/25 09:46:49;;;;;;;61.80;36.58;;;;;;;10.30;55.09;100721.33;1789462;78;21213;-77
2021/03/25 09:49:36;;;;;;;65.75;40.05;;;;;;;10.35;54.99;100720.45;1791760;78;21249;-76
2021/03/25 09:52:28;;;;;;;61.98;40.08;;;;;;;10.51;54.88;100713.75;1784383;78;21767;-76
2021/03/25 09:55:02;;;;;;;64.70;39.60;;;;;;;10.23;53.97;100713.61;1797674;78;21174;-77
2021/03/25 09:57:36;;;;;;;62.73;36.63;;;;;;;10.14;54.56;100711.81;1782106;77;21163;-76
2021/03/25 10:00:20;;;;;;;64.80;39.88;;;;;;;10.30;53.73;100713.41;1781153;78;21141;-77
2021/03/25 10:02:53;;;;;;;66.55;40.17;;;;;;;10.20;54.15;100712.57;1792385;78;21230;-77
2021/03/25 10:05:38;;;;;;;61.05;37.50;;;;;;;10.24;54.10;100717.93;1789689;78;21224;-77
2021/03/25 10:08:13;;;;;;;62.48;37.13;;;;;;;10.52;53.77;100719.39;1780952;78;21213;-76
2021/03/25 10:10:58;;;;;;;59.15;36.48;;;;;;;10.65;53.72;100702.73;1784450;78;21512;-77
2021/03/25 10:13:44;;;;;;;60.60;36.42;;;;;;;10.76;53.46;100709.16;1779077;78;21122;-76
2021/03/25 10:16:31;;;;;;;60.80;36.03;;;;;;;10.89;53.10;100711.97;1789217;78;21543;-77
2021/03/25 10:18:59;;;;;;;57.45;37.28;;;;;;;10.90;53.28;100713.15;1800707;77;21557;-75
2021/03/25 10:21:54;;;;;;;;;;;;;;;10.96;52.93;100711.75;1795581;78;21223;-76
2021/03/25 10:24:27;;;;;;;58.45;34.53;;;;;;;10.91;52.60;100714.00;1798380;78;21055;-75
2021/03/25 10:27:04;;;;;;;64.82;38.25;;;;;;;11.02;52.87;100716.45;1791319;78;21189;-76
2021/03/25 10:29:35;;;;;;;58.33;36.20;;;;;;;11.12;52.27;100713.30;1789757;77;21203;-75
2021/03/25 10:32:02;;;;;;;67.32;38.42;;;;;;;11.27;52.40;100710.16;1784504;78;21213;-75
2021/03/25 10:34:42;;;;;;;57.23;36.37;;;;;;;11.05;52.25;100706.09;1793631;78;21202;-76
2021/03/25 10:37:34;;;;;;;60.38;35.08;;;;;;;10.94;52.58;100700.50;1761130;78;21213;-76
2021/03/25 10:40:21;;;;;;;57.78;36.75;;;;;;;11.20;52.46;100694.53;1789480;78;21177;-75
2021/03/25 10:42:57;;;;;;;57.93;35.70;;;;;;;11.40;52.21;100694.77;1779125;79;21185;-75
2021/03/25 10:45:32;;;;;;;55.45;35.90;;;;;;;11.36;51.72;100688.13;1777277;79;21556;-75
2021/03/25 10:48:09;;;;;;;55.50;35.98;;;;;;;11.36;51.05;100688.13;1779978;79;21208;-76
2021/03/25 10:50:51;;;;;;;55.23;35.10;;;;;;;11.58;51.37;100680.76;1774799;79;21622;-76
2021/03/25 10:53:21;;;;;;;56.37;34.67;;;;;;;11.20;51.26;100689.24;1782820;79;21232;-76
2021/03/25 10:55:49;;;;;;;61.37;38.00;;;;;;;11.26;51.55;100676.76;1769453;79;21229;-77
2021/03/25 10:58:30;;;;;;;59.15;36.98;;;;;;;11.38;51.53;100679.55;1775671;79;21192;-75
2021/03/25 11:01:16;;;;;;;60.15;37.80;;;;;;;11.57;51.27;100673.29;1776515;79;21186;-74
2021/03/25 11:03:42;;;;;;;57.55;35.80;;;;;;;11.47;50.73;100670.72;1784384;78;21221;-75
2021/03/25 11:06:31;;;;;;;58.87;37.55;;;;;;;11.32;50.88;100680.14;1780888;78;20952;-75
2021/03/25 11:09:10;;;;;;;59.33;37.38;;;;;;;11.10;51.77;100676.91;1782708;78;21239;-75
2021/03/25 11:11:38;;;;;;;61.15;38.00;;;;;;;11.20;51.69;100674.70;1778770;79;21643;-75
2021/03/25 11:14:24;;;;;;;58.87;36.30;;;;;;;11.27;51.40;100663.89;1776911;79;21501;-75
2021/03/25 11:16:57;;;;;;;62.25;39.35;;;;;;;11.07;51.30;100667.95;1777932;79;21854;-75
2021/03/25 11:19:24;;;;;;;60.00;37.67;;;;;;;11.17;51.38;100657.81;1777871;79;21232;-74
2021/03/25 11:21:50;;;;;;;65.95;39.63;;;;;;;11.24;51.16;100662.37;1780534;79;21220;-75
2021/03/25 11:24:30;;;;;;;60.98;37.30;;;;;;;11.06;51.63;100657.05;1771934;79;27830;-75
2021/03/25 11:26:59;;;;;;;62.53;39.27;;;;;;;11.18;51.49;100662.13;1778912;79;21221;-75
2021/03/25 11:29:32;;;;;;;61.98;39.58;;;;;;;11.50;50.95;100654.55;1775303;79;21654;-75
2021/03/25 11:32:22;;;;;;;63.35;38.20;;;;;;;11.73;50.71;100651.48;1781231;79;21256;-75
2021/03/25 11:34:52;;;;;;;63.68;38.05;;;;;;;11.63;50.49;100650.70;1776335;79;21205;-75
2021/03/25 11:37:33;;;;;;;61.90;37.17;;;;;;;11.83;50.07;100641.63;1777230;79;21211;-76
2021/03/25 11:40:13;;;;;;;63.15;38.40;;;;;;;11.92;50.11;100647.02;1781841;78;21205;-74
2021/03/25 11:42:42;;;;;;;59.50;37.95;;;;;;;12.00;49.79;100644.45;1775540;79;21326;-75
2021/03/25 11:45:33;;;;;;;59.50;36.93;;;;;;;12.03;49.73;100641.50;1780156;79;21627;-75
2021/03/25 11:47:59;;;;;;;54.93;33.73;;;;;;;12.10;49.40;100637.23;1777447;79;21249;-76
2021/03/25 11:50:32;;;;;;;60.08;36.85;;;;;;;12.33;49.08;100632.77;1785336;79;21659;-76
2021/03/25 11:53:01;;;;;;;63.80;38.92;;;;;;;12.40;49.11;100629.84;1779352;79;21210;-76
2021/03/25 11:55:38;;;;;;;62.58;39.73;;;;;;;12.52;49.08;100631.25;1778192;79;21608;-76
2021/03/25 11:58:16;;;;;;;68.45;42.05;;;;;;;12.17;49.22;100623.73;1776358;79;21221;-74
2021/03/25 12:01:24;;;;;;;64.90;39.03;;;;;;;11.96;49.59;100620.59;1778466;79;21189;-75